Time;durP1;ratioP1;P1;durP2;ratioP2;P2;SDS_P1;SDS_P2;PMS_P1;PMS_P2;Temp;Humidity;BMP_temperature;BMP_pressure;BME280_temperature;BME280_humidity;BME280_pressure;Samples;Min_cycle;Max_cycle;Signal;HPM_P1;HPM_P2
2021/12/27 00:01:17;;;;;;;12.23;7.68;;;;;;;5.15;93.56;96278.78;5024492;28;20045;-61
2021/12/27 00:03:44;;;;;;;12.38;7.22;;;;;;;5.12;93.63;96273.09;5022152;28;20175;-61
2021/12/27 00:06:10;;;;;;;12.88;7.13;;;;;;;5.22;93.44;96275.94;5025530;28;20099;-60
2021/12/27 00:08:40;;;;;;;11.90;7.00;;;;;;;5.31;92.68;96273.66;5024974;28;20053;-60
2021/12/27 00:11:09;;;;;;;14.75;8.35;;;;;;;5.25;92.70;96264.72;5026220;28;20037;-61
2021/12/27 00:13:35;;;;;;;11.25;6.80;;;;;;;5.19;92.92;96268.38;5019272;28;20037;-61
2021/12/27 00:16:03;;;;;;;15.02;8.32;;;;;;;5.29;92.38;96270.41;5022233;28;20455;-61
2021/12/27 00:18:29;;;;;;;13.48;7.85;;;;;;;5.29;92.02;96265.84;5026951;28;20087;-61
2021/12/27 00:20:56;;;;;;;11.82;7.82;;;;;;;5.30;92.12;96270.16;5025700;28;20052;-61
2021/12/27 00:23:23;;;;;;;12.30;6.97;;;;;;;5.44;91.61;96270.63;5022966;28;20540;-62
2021/12/27 00:25:49;;;;;;;12.23;7.25;;;;;;;5.40;91.71;96269.50;5023031;28;20045;-62
2021/12/27 00:28:16;;;;;;;13.50;7.63;;;;;;;5.24;92.25;96264.97;5024109;28;20523;-61
2021/12/27 00:30:43;;;;;;;13.65;7.40;;;;;;;5.28;92.35;96250.81;5023686;28;20099;-61
2021/12/27 00:33:09;;;;;;;13.75;7.00;;;;;;;5.25;91.96;96248.63;5025241;28;20393;-62
2021/12/27 00:35:36;;;;;;;14.68;7.82;;;;;;;5.33;91.62;96252.75;5024935;28;20405;-61
2021/12/27 00:38:03;;;;;;;12.30;7.55;;;;;;;5.48;91.52;96254.84;5025758;28;20038;-61
2021/12/27 00:40:30;;;;;;;11.30;7.60;;;;;;;5.52;91.05;96244.41;5025357;28;20178;-61
2021/12/27 00:42:57;;;;;;;13.32;7.55;;;;;;;5.59;90.71;96248.56;5025130;28;20064;-61
2021/12/27 00:45:23;;;;;;;12.48;6.97;;;;;;;5.52;90.54;96255.16;5025279;28;20087;-62
2021/12/27 00:47:50;;;;;;;11.48;7.07;;;;;;;5.45;90.19;96252.63;5023848;28;20046;-61
2021/12/27 00:50:17;;;;;;;13.63;7.18;;;;;;;5.50;90.58;96250.06;5025600;28;20034;-62
2021/12/27 00:52:43;;;;;;;12.48;7.57;;;;;;;5.34;90.87;96251.69;5024983;28;20390;-59
2021/12/27 00:55:13;;;;;;;14.15;7.85;;;;;;;5.31;91.15;96250.31;5025249;28;20458;-60
2021/12/27 00:57:40;;;;;;;15.45;8.07;;;;;;;5.27;91.36;96251.84;5025123;28;20092;-60
2021/12/27 01:00:10;;;;;;;13.60;8.00;;;;;;;5.27;91.42;96249.16;5024627;28;20049;-59
2021/12/27 01:02:37;;;;;;;13.35;6.90;;;;;;;5.30;91.30;96246.00;5025254;28;20146;-60
2021/12/27 01:05:05;;;;;;;13.70;8.02;;;;;;;5.30;91.18;96239.81;5026383;28;20408;-58
2021/12/27 01:07:31;;;;;;;15.25;8.20;;;;;;;5.15;91.61;96241.22;5024581;28;20037;-60
2021/12/27 01:10:22;;;;;;;14.38;8.48;;;;;;;5.07;92.22;96241.63;5024180;28;20118;-58
2021/12/27 01:17:46;;;;;;;13.27;7.93;;;;;;;5.09;91.59;96244.88;5025725;28;20401;-59
2021/12/27 01:20:17;;;;;;;12.85;7.53;;;;;;;5.05;92.27;96249.13;5027388;28;20047;-59
2021/12/27 01:22:44;;;;;;;13.18;7.57;;;;;;;5.20;91.88;96246.66;5029393;28;20053;-61
2021/12/27 01:25:12;;;;;;;17.55;7.40;;;;;;;5.25;91.16;96243.25;5029508;28;20041;-61
2021/12/27 01:27:40;;;;;;;11.70;6.38;;;;;;;5.29;89.88;96249.75;5028758;28;20046;-59
2021/12/27 01:30:09;;;;;;;13.10;7.60;;;;;;;4.90;91.72;96249.69;5029366;28;20048;-59
2021/12/27 01:32:42;;;;;;;13.18;6.88;;;;;;;4.83;91.73;96249.81;5029203;28;20045;-60
2021/12/27 01:35:09;;;;;;;11.60;6.63;;;;;;;4.92;91.67;96258.28;5028928;28;20104;-59
2021/12/27 01:37:35;;;;;;;12.90;7.28;;;;;;;4.73;92.34;96252.34;5027445;28;20092;-59
2021/12/27 01:40:04;;;;;;;12.63;7.97;;;;;;;4.58;92.69;96255.56;5024946;28;20428;-58
2021/12/27 01:42:30;;;;;;;13.27;8.32;;;;;;;4.65;92.70;96256.22;5025494;28;20053;-60
2021/12/27 01:44:57;;;;;;;14.27;8.45;;;;;;;4.55;92.69;96257.69;5029077;28;20768;-58
2021/12/27 01:47:24;;;;;;;15.77;8.05;;;;;;;4.47;92.81;96257.25;5028188;28;20044;-58
2021/12/27 01:49:50;;;;;;;17.35;9.20;;;;;;;4.54;93.51;96252.56;5028836;28;20045;-59
2021/12/27 01:52:17;;;;;;;18.40;9.45;;;;;;;4.53;93.47;96249.06;5028709;28;20116;-58
2021/12/27 01:54:43;;;;;;;16.88;9.43;;;;;;;4.55;93.56;96251.50;5028113;28;20094;-59
2021/12/27 01:57:11;;;;;;;16.10;9.32;;;;;;;4.61;93.46;96249.72;5037613;28;20041;-60
2021/12/27 01:59:38;;;;;;;17.90;9.82;;;;;;;4.59;93.71;96258.00;5028686;28;20064;-59
2021/12/27 02:02:04;;;;;;;21.85;11.15;;;;;;;4.58;93.62;96248.34;5027702;28;20651;-61
2021/12/27 02:04:31;;;;;;;20.10;11.07;;;;;;;4.55;93.75;96249.66;5028753;28;20052;-60
2021/12/27 02:06:58;;;;;;;19.67;9.93;;;;;;;4.62;93.96;96244.13;5035279;28;20041;-58
2021/12/27 02:09:34;;;;;;;20.90;10.18;;;;;;;4.65;93.71;96245.50;5028445;28;20042;-60
2021/12/27 02:12:01;;;;;;;16.13;8.40;;;;;;;4.78;93.27;96242.50;5034698;28;20063;-59
2021/12/27 02:14:28;;;;;;;16.67;8.60;;;;;;;4.88;92.73;96233.84;5018015;28;20044;-58
2021/12/27 02:16:54;;;;;;;14.10;7.55;;;;;;;5.00;92.27;96241.78;5026859;28;20037;-60
2021/12/27 02:19:21;;;;;;;14.15;7.65;;;;;;;5.01;91.51;96239.94;5027954;28;20041;-60
2021/12/27 02:21:48;;;;;;;14.75;8.32;;;;;;;4.99;91.48;96234.81;5025783;28;20049;-60
2021/12/27 02:24:14;;;;;;;15.65;8.10;;;;;;;4.87;92.09;96239.44;5028832;28;20054;-58
2021/12/27 02:26:41;;;;;;;14.98;8.07;;;;;;;4.83;92.24;96233.72;5027998;28;20060;-59
2021/12/27 02:29:09;;;;;;;15.18;8.43;;;;;;;4.84;91.92;96223.81;5020952;28;20045;-60
2021/12/27 02:31:39;;;;;;;13.70;8.15;;;;;;;4.76;92.23;96222.38;5029318;28;20095;-61
2021/12/27 02:34:08;;;;;;;13.75;7.63;;;;;;;4.81;92.11;96225.94;5027771;28;20747;-57
2021/12/27 02:36:35;;;;;;;15.35;7.80;;;;;;;4.76;92.11;96225.84;5027697;28;20052;-59
2021/12/27 02:39:03;;;;;;;14.05;8.13;;;;;;;4.72;92.30;96219.34;5026971;28;20540;-59
2021/12/27 02:41:29;;;;;;;13.38;7.50;;;;;;;4.80;92.14;96228.88;5026294;28;20049;-59
2021/12/27 02:43:56;;;;;;;14.30;7.40;;;;;;;4.90;92.04;96223.66;5026469;28;20049;-59
2021/12/27 02:46:23;;;;;;;12.30;7.20;;;;;;;4.80;91.73;96223.50;5026472;28;20064;-58
2021/12/27 02:48:49;;;;;;;13.43;7.05;;;;;;;4.75;91.97;96228.78;5027969;28;20050;-60
2021/12/27 02:51:18;;;;;;;11.45;6.55;;;;;;;4.74;92.10;96224.47;5027369;28;20044;-59
2021/12/27 02:53:46;;;;;;;10.90;6.25;;;;;;;4.78;91.95;96234.47;5027478;28;20052;-58
2021/12/27 02:56:14;;;;;;;9.70;6.55;;;;;;;4.62;91.46;96230.72;5028854;28;20107;-59
2021/12/27 02:58:40;;;;;;;10.63;6.45;;;;;;;4.54;91.94;96239.94;5026413;28;20386;-60
2021/12/27 03:01:13;;;;;;;10.98;6.47;;;;;;;4.57;91.91;96241.34;5026661;28;20491;-59
2021/12/27 03:03:40;;;;;;;12.10;6.57;;;;;;;4.49;92.33;96231.81;5007986;28;20133;-59
2021/12/27 03:06:07;;;;;;;11.55;6.55;;;;;;;4.46;92.47;96229.63;5015191;28;20722;-59
2021/12/27 03:08:34;;;;;;;14.40;8.35;;;;;;;4.42;92.63;96233.84;5027775;28;20674;-60
2021/12/27 03:11:02;;;;;;;13.43;6.95;;;;;;;4.40;92.82;96228.75;5027156;28;20033;-60
2021/12/27 03:13:32;;;;;;;15.02;7.25;;;;;;;4.46;92.81;96237.66;5026149;28;20053;-61
2021/12/27 03:16:08;;;;;;;13.40;7.88;;;;;;;4.49;92.53;96223.78;5026708;28;20092;-60
2021/12/27 03:18:37;;;;;;;14.20;8.15;;;;;;;4.46;92.57;96223.47;5015860;28;20041;-60
2021/12/27 03:21:05;;;;;;;15.13;8.13;;;;;;;4.41;92.92;96216.97;5020379;28;20049;-61
2021/12/27 03:23:33;;;;;;;15.90;8.98;;;;;;;4.34;93.30;96218.13;5039821;28;20033;-59
2021/12/27 03:25:59;;;;;;;13.40;7.50;;;;;;;4.34;93.29;96207.41;5026361;28;20045;-61
2021/12/27 03:28:28;;;;;;;15.77;8.43;;;;;;;4.33;93.34;96205.81;5027122;28;20772;-61
2021/12/27 03:30:57;;;;;;;14.70;8.85;;;;;;;4.32;93.22;96204.19;5027263;28;20045;-60
2021/12/27 03:33:24;;;;;;;16.15;7.30;;;;;;;4.40;93.17;96206.47;5026976;28;20049;-61
2021/12/27 03:36:01;;;;;;;16.00;7.45;;;;;;;4.36;93.39;96199.97;5026692;28;20056;-59
2021/12/27 03:38:34;;;;;;;15.27;9.02;;;;;;;4.28;93.39;96198.50;5026482;28;20041;-59
2021/12/27 03:41:03;;;;;;;13.77;7.82;;;;;;;4.35;93.43;96193.78;5025454;28;20049;-59
2021/12/27 03:43:30;;;;;;;12.95;7.57;;;;;;;4.36;93.07;96197.28;5025354;28;20100;-60
2021/12/27 03:45:57;;;;;;;12.65;7.47;;;;;;;4.29;92.94;96200.13;5024743;28;20107;-60
2021/12/27 03:48:24;;;;;;;13.07;7.57;;;;;;;4.25;93.01;96198.97;5025257;28;20042;-59
2021/12/27 03:50:50;;;;;;;13.98;7.72;;;;;;;4.21;93.25;96195.16;5025810;28;20045;-60
2021/12/27 03:53:17;;;;;;;17.00;7.30;;;;;;;4.18;93.39;96196.44;5025264;28;20041;-59
2021/12/27 03:55:43;;;;;;;13.45;7.47;;;;;;;4.25;93.16;96193.63;5028484;28;20071;-60
2021/12/27 03:58:23;;;;;;;12.05;7.47;;;;;;;4.18;93.00;96198.28;5034947;28;20045;-61
2021/12/27 04:01:02;;;;;;;12.75;7.25;;;;;;;4.14;93.37;96192.63;5026046;28;20107;-61
2021/12/27 04:03:31;;;;;;;14.05;7.15;;;;;;;4.15;93.23;96194.22;5026281;28;20069;-61
2021/12/27 04:05:58;;;;;;;9.90;5.80;;;;;;;4.29;92.81;96192.06;5025864;28;20508;-60
2021/12/27 04:08:25;;;;;;;13.38;7.20;;;;;;;4.21;92.90;96190.63;5026256;28;20045;-60
2021/12/27 04:10:53;;;;;;;12.98;6.88;;;;;;;4.19;92.83;96194.56;5024512;28;20037;-60
2021/12/27 04:13:21;;;;;;;12.93;6.38;;;;;;;4.15;92.98;96194.22;5026589;28;20421;-59
2021/12/27 04:15:49;;;;;;;13.98;7.82;;;;;;;4.11;92.86;96193.09;5021743;28;20674;-59
2021/12/27 04:18:17;;;;;;;15.75;7.38;;;;;;;4.06;93.03;96195.69;5021736;28;20500;-60
2021/12/27 04:20:44;;;;;;;15.40;8.30;;;;;;;4.02;93.49;96188.09;5025810;28;20052;-60
2021/12/27 04:23:11;;;;;;;15.48;8.10;;;;;;;4.05;93.29;96192.16;5026264;28;20099;-60
2021/12/27 04:25:41;;;;;;;15.70;8.18;;;;;;;4.07;93.50;96191.94;5025725;28;20041;-59
2021/12/27 04:28:08;;;;;;;17.77;8.57;;;;;;;4.07;93.16;96194.63;5026383;28;20495;-59
2021/12/27 04:30:35;;;;;;;17.67;8.82;;;;;;;4.05;93.26;96196.72;5025278;28;20049;-61
2021/12/27 04:33:02;;;;;;;18.60;9.05;;;;;;;4.09;93.67;96197.88;5025012;28;20091;-60
2021/12/27 04:35:29;;;;;;;16.42;8.40;;;;;;;4.09;93.48;96189.84;5024497;28;20053;-61
2021/12/27 04:37:56;;;;;;;15.23;8.45;;;;;;;4.14;93.28;96192.63;5025646;28;20153;-60
2021/12/27 04:40:26;;;;;;;16.33;9.05;;;;;;;4.16;93.24;96191.31;5025893;28;20045;-60
2021/12/27 04:42:59;;;;;;;17.90;7.95;;;;;;;4.31;92.89;96194.53;5025832;28;20494;-60
2021/12/27 04:45:26;;;;;;;13.60;7.40;;;;;;;4.37;92.26;96196.22;5025170;28;20635;-60
2021/12/27 04:47:53;;;;;;;14.82;7.88;;;;;;;4.44;91.81;96188.84;5025660;28;20042;-60
2021/12/27 04:50:21;;;;;;;11.68;6.88;;;;;;;4.47;91.52;96191.06;5025677;28;20092;-58
2021/12/27 04:52:48;;;;;;;13.60;7.78;;;;;;;4.45;92.12;96177.06;5025722;28;20037;-61
2021/12/27 04:55:14;;;;;;;11.50;6.78;;;;;;;4.40;92.22;96179.66;5029627;28;20045;-61
2021/12/27 04:57:41;;;;;;;14.77;8.23;;;;;;;4.48;91.77;96176.59;5049246;28;20037;-59
2021/12/27 05:00:08;;;;;;;13.00;7.47;;;;;;;4.40;92.36;96179.66;5040490;28;20049;-60
2021/12/27 05:02:35;;;;;;;15.20;8.43;;;;;;;4.31;92.54;96176.56;5028438;28;20037;-60
2021/12/27 05:05:02;;;;;;;14.70;7.57;;;;;;;4.29;92.79;96173.31;5022759;28;20057;-59
2021/12/27 05:07:29;;;;;;;13.88;6.85;;;;;;;4.42;92.51;96177.53;5026378;28;20049;-59
2021/12/27 05:09:55;;;;;;;12.13;6.65;;;;;;;4.55;91.86;96176.44;5028245;28;20045;-61
2021/12/27 05:12:22;;;;;;;14.25;6.93;;;;;;;4.60;91.29;96183.75;5026842;28;20045;-59
2021/12/27 05:14:48;;;;;;;11.50;7.38;;;;;;;4.50;91.48;96177.16;5027904;28;20045;-60
2021/12/27 05:17:15;;;;;;;11.32;6.30;;;;;;;4.51;91.68;96175.28;5028765;28;20046;-59
2021/12/27 05:19:42;;;;;;;11.27;6.15;;;;;;;4.54;91.48;96178.28;5029334;28;20049;-61
2021/12/27 05:22:08;;;;;;;11.32;6.40;;;;;;;4.55;91.19;96176.44;5020958;28;20049;-61
2021/12/27 05:24:35;;;;;;;11.30;6.78;;;;;;;4.44;91.81;96175.44;5028838;28;20049;-60
2021/12/27 05:27:02;;;;;;;15.20;7.85;;;;;;;4.50;91.78;96166.44;5029482;28;20680;-59
2021/12/27 05:29:29;;;;;;;11.48;6.32;;;;;;;4.52;91.66;96166.19;5029566;28;20389;-61
2021/12/27 05:32:01;;;;;;;12.93;6.50;;;;;;;4.53;91.23;96163.28;5042347;28;20065;-59
2021/12/27 05:34:34;;;;;;;11.90;5.75;;;;;;;4.55;91.07;96163.84;5024300;28;20041;-59
2021/12/27 05:37:00;;;;;;;11.13;6.80;;;;;;;4.58;91.06;96165.22;5028148;28;20068;-61
2021/12/27 05:39:27;;;;;;;9.52;5.55;;;;;;;4.59;90.93;96157.97;5021434;28;20049;-61
2021/12/27 05:41:53;;;;;;;12.40;5.80;;;;;;;4.45;91.28;96155.63;5028487;28;20099;-60
2021/12/27 05:44:20;;;;;;;9.20;5.35;;;;;;;4.48;91.46;96159.69;5028625;28;20049;-59
2021/12/27 05:46:46;;;;;;;11.00;5.35;;;;;;;4.51;90.82;96154.69;5027134;28;20046;-60
2021/12/27 05:49:14;;;;;;;10.15;5.28;;;;;;;4.39;91.37;96149.38;5010930;28;20885;-60
2021/12/27 05:51:43;;;;;;;10.00;5.53;;;;;;;4.30;91.82;96156.19;5008860;28;20049;-61
2021/12/27 05:54:11;;;;;;;10.52;6.15;;;;;;;4.18;92.36;96148.22;5024547;28;20051;-60
2021/12/27 05:56:38;;;;;;;12.38;6.20;;;;;;;4.12;92.43;96143.81;5027289;28;20053;-61
2021/12/27 05:59:05;;;;;;;11.55;6.53;;;;;;;4.01;92.84;96140.94;5028569;28;20056;-59
2021/12/27 06:01:31;;;;;;;11.50;6.20;;;;;;;3.97;93.00;96138.97;5028209;28;20050;-61
2021/12/27 06:03:59;;;;;;;13.30;6.45;;;;;;;3.92;93.10;96145.06;5028096;28;20671;-60
2021/12/27 06:06:26;;;;;;;12.65;6.30;;;;;;;3.89;93.70;96135.66;5035950;28;20048;-60
2021/12/27 06:08:53;;;;;;;9.82;5.88;;;;;;;3.87;93.83;96126.25;5023588;28;20045;-60
2021/12/27 06:11:20;;;;;;;10.75;5.85;;;;;;;3.89;93.52;96135.66;5027142;28;20037;-61
2021/12/27 06:13:46;;;;;;;9.40;5.68;;;;;;;3.91;92.70;96135.41;5025892;28;20045;-60
2021/12/27 06:16:13;;;;;;;9.27;5.38;;;;;;;3.75;92.13;96137.81;5026692;28;20041;-59
2021/12/27 06:18:40;;;;;;;11.45;5.10;;;;;;;3.61;92.43;96137.25;5025686;28;20041;-60
2021/12/27 06:21:07;;;;;;;9.60;5.43;;;;;;;3.52;93.24;96130.66;5024670;28;20048;-60
2021/12/27 06:23:37;;;;;;;10.57;5.57;;;;;;;3.42;93.16;96139.28;5026980;28;20041;-60
2021/12/27 06:26:04;;;;;;;11.70;6.30;;;;;;;3.41;93.92;96132.31;5026828;28;20045;-61
2021/12/27 06:28:34;;;;;;;10.40;5.57;;;;;;;3.21;93.45;96136.19;5026345;28;20049;-60
2021/12/27 06:31:02;;;;;;;10.45;5.22;;;;;;;3.15;93.19;96130.97;5027740;28;20557;-60
2021/12/27 06:33:29;;;;;;;10.52;5.60;;;;;;;3.19;93.83;96130.28;5026535;28;20048;-59
2021/12/27 06:35:59;;;;;;;11.93;5.80;;;;;;;2.94;93.65;96126.00;5027946;28;20053;-61
2021/12/27 06:38:26;;;;;;;10.43;4.97;;;;;;;2.85;93.33;96120.19;5027581;28;20045;-60
2021/12/27 06:40:53;;;;;;;10.90;5.32;;;;;;;2.73;93.22;96124.75;5028006;28;20064;-61
2021/12/27 06:43:19;;;;;;;11.30;5.80;;;;;;;2.62;93.23;96122.88;5027072;28;20568;-61
2021/12/27 06:45:46;;;;;;;10.82;5.75;;;;;;;2.63;94.39;96119.16;5026440;28;20172;-59
2021/12/27 06:48:15;;;;;;;11.93;6.13;;;;;;;2.32;94.13;96128.06;5035332;28;20416;-60
2021/12/27 06:50:42;;;;;;;12.05;6.43;;;;;;;2.24;94.70;96133.72;5047581;28;20048;-60
2021/12/27 06:53:09;;;;;;;14.15;7.05;;;;;;;2.36;95.55;96131.06;5034389;28;20619;-60
2021/12/27 06:55:44;;;;;;;18.42;8.18;;;;;;;2.55;95.58;96134.47;5030854;28;20047;-61
2021/12/27 06:58:11;;;;;;;17.10;7.13;;;;;;;2.57;95.48;96123.56;5033562;28;20095;-61
2021/12/27 07:00:38;;;;;;;12.73;6.57;;;;;;;2.60;95.25;96131.13;5027548;28;20099;-61
2021/12/27 07:03:05;;;;;;;13.77;6.85;;;;;;;2.71;95.03;96124.97;5027410;28;20042;-62
2021/12/27 07:05:32;;;;;;;15.27;6.57;;;;;;;2.85;95.02;96124.72;5026825;28;20037;-59
2021/12/27 07:07:59;;;;;;;14.80;7.18;;;;;;;2.84;94.56;96109.75;5026842;28;20052;-58
2021/12/27 07:10:27;;;;;;;14.82;7.55;;;;;;;2.89;94.28;96122.38;5028454;28;20041;-60
2021/12/27 07:12:54;;;;;;;13.10;6.85;;;;;;;2.91;93.88;96128.34;5032478;28;20496;-61
2021/12/27 07:15:20;;;;;;;13.52;6.25;;;;;;;2.77;94.01;96131.25;5025583;28;20041;-58
2021/12/27 07:17:47;;;;;;;17.73;7.90;;;;;;;3.03;94.38;96125.63;5023296;28;20041;-59
2021/12/27 07:20:14;;;;;;;16.08;7.65;;;;;;;3.05;94.16;96120.84;5024624;28;20084;-60
2021/12/27 07:22:40;;;;;;;16.90;7.57;;;;;;;3.15;94.26;96121.09;5025144;28;20051;-59
2021/12/27 07:25:07;;;;;;;16.73;8.68;;;;;;;3.17;94.01;96120.84;5025115;28;20049;-58
2021/12/27 07:27:34;;;;;;;15.50;6.97;;;;;;;3.36;93.92;96110.81;5024400;28;20053;-60
2021/12/27 07:30:04;;;;;;;13.82;7.15;;;;;;;3.36;93.18;96114.28;5024549;28;20056;-58
2021/12/27 07:32:31;;;;;;;11.88;6.88;;;;;;;3.38;92.95;96124.75;5028153;28;20049;-60
2021/12/27 07:34:57;;;;;;;14.15;7.35;;;;;;;3.44;93.02;96120.31;5023514;28;20801;-57
2021/12/27 07:37:24;;;;;;;16.05;6.47;;;;;;;3.50;93.08;96120.19;5024126;28;20071;-61
2021/12/27 07:39:50;;;;;;;12.68;6.50;;;;;;;3.48;92.42;96100.91;5019822;28;20056;-54
2021/12/27 07:42:17;;;;;;;13.27;6.90;;;;;;;3.49;92.64;96105.19;5023393;28;20046;-52
2021/12/27 07:44:44;;;;;;;13.77;7.05;;;;;;;3.50;92.54;96106.81;5025476;28;20037;-53
2021/12/27 07:47:10;;;;;;;10.50;6.18;;;;;;;3.50;92.38;96104.13;5023406;28;20055;-54
2021/12/27 07:49:39;;;;;;;13.15;6.82;;;;;;;3.45;92.51;96109.38;5023304;28;20099;-53
2021/12/27 07:52:07;;;;;;;13.55;7.05;;;;;;;3.42;93.19;96107.19;5026013;28;20048;-53
2021/12/27 07:54:34;;;;;;;12.75;6.25;;;;;;;3.34;92.75;96110.22;5019359;28;20305;-51
2021/12/27 07:57:00;;;;;;;12.95;6.35;;;;;;;3.34;92.91;96104.88;5024498;28;20046;-61
2021/12/27 07:59:28;;;;;;;11.45;6.35;;;;;;;3.37;92.99;96107.91;5024055;28;20057;-55
2021/12/27 08:01:54;;;;;;;14.25;7.63;;;;;;;3.42;93.04;96109.06;5025439;28;20404;-60
2021/12/27 08:04:21;;;;;;;15.70;6.57;;;;;;;3.56;92.46;96105.03;5020561;28;20053;-62
2021/12/27 08:06:48;;;;;;;12.15;5.97;;;;;;;3.75;91.97;96120.91;5015295;28;20142;-62
2021/12/27 08:09:14;;;;;;;11.98;6.03;;;;;;;3.83;91.55;96120.53;5021355;28;20048;-59
2021/12/27 08:11:41;;;;;;;11.63;6.72;;;;;;;3.70;91.68;96121.66;5021864;28;20049;-60
2021/12/27 08:14:08;;;;;;;12.93;7.25;;;;;;;3.69;92.31;96119.22;5022136;28;20045;-60
2021/12/27 08:16:34;;;;;;;13.30;7.78;;;;;;;3.76;91.83;96107.28;5022310;28;20713;-60
2021/12/27 08:19:01;;;;;;;14.95;7.22;;;;;;;3.79;91.93;96122.06;5022965;28;20045;-61
2021/12/27 08:21:29;;;;;;;13.52;6.85;;;;;;;3.80;92.02;96121.03;5025235;28;20057;-62
2021/12/27 08:23:56;;;;;;;13.70;7.40;;;;;;;3.83;91.89;96125.09;5024378;28;20483;-60
2021/12/27 08:26:23;;;;;;;15.52;7.45;;;;;;;3.84;92.01;96122.16;5022002;28;20166;-60
2021/12/27 08:28:52;;;;;;;15.25;7.43;;;;;;;3.84;91.99;96121.34;5024163;28;20555;-61
2021/12/27 08:31:18;;;;;;;17.52;8.02;;;;;;;3.90;92.22;96115.84;5021445;28;20041;-62
2021/12/27 08:33:45;;;;;;;15.77;7.75;;;;;;;3.89;91.83;96116.09;5020875;28;20053;-61
2021/12/27 08:36:12;;;;;;;15.50;7.22;;;;;;;3.93;91.87;96113.72;5021853;28;20141;-62
2021/12/27 08:38:40;;;;;;;14.35;7.68;;;;;;;3.89;91.87;96116.91;5022267;28;20073;-61
2021/12/27 08:41:06;;;;;;;14.20;6.70;;;;;;;3.93;91.61;96108.38;5023154;28;20041;-60
2021/12/27 08:43:33;;;;;;;14.27;6.68;;;;;;;4.05;91.50;96105.66;5022341;28;20267;-62
2021/12/27 08:45:59;;;;;;;13.98;6.93;;;;;;;4.08;91.12;96103.31;5022365;28;20053;-61
2021/12/27 08:48:27;;;;;;;13.68;6.90;;;;;;;4.08;91.22;96105.16;5023099;28;20042;-60
2021/12/27 08:50:54;;;;;;;13.55;6.45;;;;;;;4.10;91.53;96105.75;5021294;28;20569;-60
2021/12/27 08:53:20;;;;;;;13.10;6.40;;;;;;;4.13;91.58;96105.25;5021729;28;20487;-62
2021/12/27 08:55:47;;;;;;;12.77;6.15;;;;;;;4.22;91.15;96102.97;5024150;28;20095;-60
2021/12/27 08:58:13;;;;;;;11.98;5.53;;;;;;;4.28;90.97;96102.81;5029238;28;20041;-59
2021/12/27 09:00:40;;;;;;;14.30;7.18;;;;;;;4.26;90.82;96104.94;5023593;28;20041;-62
2021/12/27 09:03:07;;;;;;;14.43;7.35;;;;;;;4.19;91.34;96108.81;5020344;28;20048;-60
2021/12/27 09:05:34;;;;;;;12.05;6.47;;;;;;;4.28;91.20;96105.50;5022361;28;20493;-59
2021/12/27 09:08:00;;;;;;;10.20;5.72;;;;;;;4.23;90.97;96113.47;5023465;28;20053;-59
2021/12/27 09:10:27;;;;;;;9.77;5.05;;;;;;;4.32;91.33;96110.38;5022049;28;20037;-59
2021/12/27 09:12:54;;;;;;;12.32;6.68;;;;;;;4.35;90.95;96102.66;5021843;28;20512;-60
2021/12/27 09:15:21;;;;;;;12.40;6.82;;;;;;;4.36;91.03;96114.22;5022914;28;20076;-61
2021/12/27 09:17:47;;;;;;;11.82;5.97;;;;;;;4.32;91.52;96113.06;5023228;28;20045;-59
2021/12/27 09:20:14;;;;;;;11.07;6.47;;;;;;;4.31;91.35;96111.44;5022093;28;20448;-59
2021/12/27 09:22:42;;;;;;;11.23;6.38;;;;;;;4.26;91.73;96106.81;5018164;28;20050;-61
2021/12/27 09:25:09;;;;;;;15.52;6.53;;;;;;;4.23;91.88;96112.63;5019407;28;20042;-60
2021/12/27 09:27:36;;;;;;;16.15;7.75;;;;;;;4.25;92.39;96107.88;5023167;28;20095;-60
2021/12/27 09:30:05;;;;;;;14.48;7.25;;;;;;;4.21;91.99;96099.50;5021692;28;20099;-61
2021/12/27 09:32:31;;;;;;;14.52;6.82;;;;;;;4.19;92.06;96104.28;5023593;28;20603;-61
2021/12/27 09:34:58;;;;;;;14.15;6.65;;;;;;;4.18;92.16;96091.94;5022931;28;20130;-61
2021/12/27 09:37:25;;;;;;;15.75;7.55;;;;;;;4.24;92.12;96095.53;5025685;28;20057;-61
2021/12/27 09:39:54;;;;;;;14.27;6.57;;;;;;;4.37;91.85;96086.34;5018402;28;20140;-62
2021/12/27 09:42:22;;;;;;;14.10;7.57;;;;;;;4.48;91.54;96093.50;5027473;28;20478;-59
2021/12/27 09:44:50;;;;;;;14.18;7.70;;;;;;;4.52;91.28;96086.59;5021925;28;20054;-59
2021/12/27 09:47:17;;;;;;;11.18;6.88;;;;;;;4.58;91.23;96086.66;5025409;28;20041;-61
2021/12/27 09:49:52;;;;;;;18.67;10.00;;;;;;;4.64;91.18;96077.66;5024629;28;20053;-61
2021/12/27 09:52:25;;;;;;;17.17;9.23;;;;;;;4.71;91.11;96077.47;5025557;28;20041;-59
2021/12/27 09:54:52;;;;;;;13.65;7.18;;;;;;;4.80;91.04;96076.78;5025421;28;20417;-60
2021/12/27 09:57:19;;;;;;;11.27;5.03;;;;;;;4.93;90.67;96072.13;5024877;28;20041;-61
2021/12/27 09:59:46;;;;;;;14.55;8.50;;;;;;;5.05;90.32;96072.84;5025683;28;20045;-61
2021/12/27 10:02:13;;;;;;;12.27;6.57;;;;;;;5.14;89.84;96072.41;5024744;28;20544;-60
2021/12/27 10:04:40;;;;;;;16.30;9.07;;;;;;;5.24;89.89;96074.41;5023564;28;20044;-60
2021/12/27 10:07:06;;;;;;;12.77;7.13;;;;;;;5.26;89.33;96067.72;5023888;28;20539;-59
2021/12/27 10:09:34;;;;;;;10.57;6.22;;;;;;;5.32;88.57;96057.88;5023895;28;20042;-60
2021/12/27 10:12:02;;;;;;;12.25;5.68;;;;;;;5.42;88.38;96065.25;5022117;28;20144;-59
2021/12/27 10:14:29;;;;;;;9.80;5.35;;;;;;;5.51;88.50;96066.41;5034452;28;20045;-61
2021/12/27 10:17:10;;;;;;;10.63;5.70;;;;;;;5.52;88.32;96056.47;5025985;28;20469;-61
2021/12/27 10:19:38;;;;;;;10.30;6.25;;;;;;;5.56;88.27;96050.34;5025793;28;20049;-61
2021/12/27 10:22:11;;;;;;;9.50;5.72;;;;;;;5.60;87.76;96056.84;5020952;28;20045;-60
2021/12/27 10:24:39;;;;;;;8.75;5.35;;;;;;;5.67;87.76;96048.59;5024682;28;20045;-59
2021/12/27 10:27:06;;;;;;;10.75;6.30;;;;;;;5.66;87.47;96052.34;5026361;28;20049;-61
2021/12/27 10:29:38;;;;;;;9.90;6.00;;;;;;;5.58;87.26;96058.16;5026277;28;20112;-61
2021/12/27 10:32:06;;;;;;;10.20;6.03;;;;;;;5.51;87.48;96058.34;5025019;28;20060;-62
2021/12/27 10:34:34;;;;;;;11.82;6.90;;;;;;;5.35;87.91;96054.69;5025652;28;20520;-60
2021/12/27 10:37:13;;;;;;;11.15;5.63;;;;;;;5.34;88.48;96048.50;5024513;28;20049;-60
2021/12/27 10:39:45;;;;;;;11.40;5.78;;;;;;;5.30;88.62;96047.38;5036133;28;20691;-56
2021/12/27 10:42:25;;;;;;;8.98;4.70;;;;;;;5.46;88.71;96034.16;5024641;28;20046;-59
2021/12/27 10:44:54;;;;;;;11.35;6.15;;;;;;;5.52;88.64;96037.66;5025794;28;20041;-59
2021/12/27 10:47:46;;;;;;;12.75;5.97;;;;;;;5.61;88.30;96025.44;5024572;28;20424;-57
2021/12/27 10:50:14;;;;;;;10.98;6.00;;;;;;;5.61;88.25;96033.50;5025179;28;20045;-60
2021/12/27 10:52:55;;;;;;;11.63;6.13;;;;;;;5.59;88.27;96030.22;5025533;28;20045;-58
2021/12/27 10:55:38;;;;;;;13.32;7.70;;;;;;;5.45;88.80;96033.31;5024800;28;20053;-57
2021/12/27 10:58:19;;;;;;;14.48;7.63;;;;;;;5.58;88.92;96032.13;5019468;28;20042;-62
2021/12/27 11:00:58;;;;;;;11.95;7.13;;;;;;;5.68;88.02;96027.91;5022526;28;20381;-58
2021/12/27 11:03:31;;;;;;;10.68;4.60;;;;;;;5.80;88.14;96028.56;5024930;28;20069;-58
2021/12/27 11:05:59;;;;;;;11.43;6.18;;;;;;;5.83;87.51;96025.34;5025539;28;20053;-58
2021/12/27 11:08:27;;;;;;;12.43;6.40;;;;;;;5.89;87.14;96028.91;5025055;28;20056;-59
2021/12/27 11:10:54;;;;;;;11.48;5.82;;;;;;;6.06;87.50;96034.19;5025731;28;20045;-58
2021/12/27 11:13:21;;;;;;;9.63;4.72;;;;;;;5.93;86.56;96026.53;5038948;28;20050;-62
2021/12/27 11:15:48;;;;;;;11.15;5.38;;;;;;;5.90;86.95;96029.72;5024459;28;20041;-60
2021/12/27 11:18:15;;;;;;;11.25;5.82;;;;;;;5.96;87.26;96026.00;5024792;28;20053;-61
2021/12/27 11:20:45;;;;;;;10.57;6.15;;;;;;;5.90;86.58;96022.47;5023446;28;20045;-60
2021/12/27 11:23:13;;;;;;;9.95;5.53;;;;;;;5.94;86.97;96014.72;5024674;28;20091;-59
2021/12/27 11:25:43;;;;;;;11.57;5.95;;;;;;;6.05;87.11;96018.34;5024608;28;20103;-60
2021/12/27 11:28:36;;;;;;;10.60;4.95;;;;;;;6.15;86.95;96017.59;5011932;28;20045;-62
2021/12/27 11:31:13;;;;;;;11.23;4.90;;;;;;;6.21;85.40;96022.75;5028606;28;20049;-60
2021/12/27 11:33:56;;;;;;;12.10;5.97;;;;;;;6.13;86.53;96011.66;5017883;28;20127;-60
2021/12/27 11:36:28;;;;;;;7.45;4.50;;;;;;;5.95;86.50;96005.59;5012090;28;20046;-62
2021/12/27 11:38:56;;;;;;;10.02;4.78;;;;;;;5.91;86.66;96012.53;5024601;28;20049;-62
2021/12/27 11:41:28;;;;;;;12.27;5.38;;;;;;;5.96;86.66;96009.88;5013212;28;20045;-64
2021/12/27 11:43:56;;;;;;;12.30;5.72;;;;;;;5.92;86.54;96011.47;5037164;28;20054;-62